Time;durP1;ratioP1;P1;durP2;ratioP2;P2;SDS_P1;SDS_P2;PMS_P1;PMS_P2;Temp;Humidity;BMP_temperature;BMP_pressure;BME280_temperature;BME280_humidity;BME280_pressure;Samples;Min_cycle;Max_cycle;Signal;HPM_P1;HPM_P2
2023/10/30 00:00:54;;;;;;;5.77;3.97;;;;;;;;;;4902484;29;20229;-83
2023/10/30 00:03:58;;;;;;;6.27;4.60;;;;;;;;;;4903612;29;20533;-83
2023/10/30 00:07:03;;;;;;;4.90;4.00;;;;;;;;;;4903702;29;20181;-83
2023/10/30 00:10:07;;;;;;;4.10;3.63;;;;;;;;;;4902362;29;20213;-83
2023/10/30 00:13:11;;;;;;;6.33;4.30;;;;;;;;;;4901915;29;20197;-84
2023/10/30 00:16:16;;;;;;;5.90;3.93;;;;;;;;;;4902161;29;20189;-83
2023/10/30 00:19:21;;;;;;;6.80;3.80;;;;;;;;;;4901982;29;20237;-83
2023/10/30 00:22:26;;;;;;;5.10;3.70;;;;;;;;;;4890551;29;20190;-84
2023/10/30 00:25:31;;;;;;;5.10;4.27;;;;;;;;;;4891714;29;20189;-83
2023/10/30 00:28:36;;;;;;;6.80;3.70;;;;;;;;;;4902017;29;20198;-84
2023/10/30 00:31:41;;;;;;;5.50;4.23;;;;;;;;;;4901594;29;20182;-83
2023/10/30 00:34:46;;;;;;;5.30;4.47;;;;;;;;;;4891255;29;20579;-84
2023/10/30 00:37:51;;;;;;;5.53;4.07;;;;;;;;;;4891256;29;20193;-83
2023/10/30 00:40:56;;;;;;;5.87;4.40;;;;;;;;;;4890708;29;20217;-83
2023/10/30 00:44:00;;;;;;;5.23;4.37;;;;;;;;;;4890866;29;20217;-84
2023/10/30 00:47:05;;;;;;;6.07;3.60;;;;;;;;;;4890894;29;20181;-83
2023/10/30 00:50:09;;;;;;;5.20;4.40;;;;;;;;;;4901991;29;20233;-83
2023/10/30 00:53:13;;;;;;;5.70;4.10;;;;;;;;;;4880178;29;20189;-83
2023/10/30 00:56:18;;;;;;;5.17;3.70;;;;;;;;;;4880145;29;20197;-84
2023/10/30 00:59:21;;;;;;;5.83;4.13;;;;;;;;;;4900851;29;20229;-83
2023/10/30 01:02:26;;;;;;;5.70;4.17;;;;;;;;;;4901359;29;20186;-83
2023/10/30 01:05:30;;;;;;;6.23;3.67;;;;;;;;;;4889689;29;20563;-83
2023/10/30 01:08:34;;;;;;;6.07;3.97;;;;;;;;;;4890261;29;20194;-83
2023/10/30 01:11:41;;;;;;;4.43;3.90;;;;;;;;;;4893345;29;20186;-83
2023/10/30 01:14:45;;;;;;;5.53;3.83;;;;;;;;;;4904744;29;20197;-83
2023/10/30 01:17:49;;;;;;;4.20;3.33;;;;;;;;;;4893492;29;20193;-83
2023/10/30 01:20:53;;;;;;;6.57;3.80;;;;;;;;;;4893082;29;20217;-83
2023/10/30 01:23:58;;;;;;;4.43;3.20;;;;;;;;;;4882606;29;20189;-83
2023/10/30 01:27:02;;;;;;;7.07;3.60;;;;;;;;;;4904136;29;20194;-83
2023/10/30 01:30:07;;;;;;;6.90;3.80;;;;;;;;;;4882740;29;20679;-83
2023/10/30 01:33:11;;;;;;;5.27;3.90;;;;;;;;;;4903724;29;20193;-84
2023/10/30 01:36:15;;;;;;;4.53;3.87;;;;;;;;;;4903303;29;20555;-84
2023/10/30 01:39:20;;;;;;;6.10;3.60;;;;;;;;;;4892913;29;20224;-83
2023/10/30 01:42:24;;;;;;;6.33;3.70;;;;;;;;;;4903250;29;20196;-84
2023/10/30 01:45:28;;;;;;;9.33;3.97;;;;;;;;;;4903323;29;20643;-83
2023/10/30 01:48:33;;;;;;;6.07;3.70;;;;;;;;;;4893096;29;20188;-83
2023/10/30 01:51:38;;;;;;;6.80;3.80;;;;;;;;;;4892844;29;20190;-84
2023/10/30 01:54:43;;;;;;;5.47;3.50;;;;;;;;;;4903138;29;20555;-83
2023/10/30 01:57:48;;;;;;;6.10;3.43;;;;;;;;;;4903656;29;20620;-83
2023/10/30 02:00:53;;;;;;;8.50;3.67;;;;;;;;;;4892274;29;20691;-84
2023/10/30 02:03:58;;;;;;;8.00;3.53;;;;;;;;;;4892715;29;20194;-83
2023/10/30 02:07:05;;;;;;;5.53;3.60;;;;;;;;;;4904145;29;20190;-84
2023/10/30 02:10:09;;;;;;;5.80;3.73;;;;;;;;;;4902889;29;20225;-83
2023/10/30 02:13:13;;;;;;;4.87;3.63;;;;;;;;;;4902950;29;20579;-84
2023/10/30 02:16:17;;;;;;;3.77;3.23;;;;;;;;;;4892376;29;20190;-84
2023/10/30 02:19:24;;;;;;;4.57;3.40;;;;;;;;;;4882330;29;20595;-83
2023/10/30 02:22:29;;;;;;;4.87;3.37;;;;;;;;;;4902668;29;20185;-83
2023/10/30 02:25:34;;;;;;;4.20;3.47;;;;;;;;;;4902905;29;20185;-84
2023/10/30 02:28:39;;;;;;;6.67;2.80;;;;;;;;;;4903209;29;20231;-83
2023/10/30 02:31:44;;;;;;;6.00;2.90;;;;;;;;;;4891949;29;20572;-83
2023/10/30 02:34:48;;;;;;;3.67;3.20;;;;;;;;;;4892109;29;20189;-83
2023/10/30 02:37:52;;;;;;;5.30;3.77;;;;;;;;;;4903049;29;20186;-83
2023/10/30 02:40:56;;;;;;;4.57;3.47;;;;;;;;;;4902737;29;20687;-84
2023/10/30 02:44:01;;;;;;;5.27;3.60;;;;;;;;;;4902812;29;20209;-83
2023/10/30 02:47:06;;;;;;;5.50;2.90;;;;;;;;;;4902660;29;20193;-83
2023/10/30 02:50:10;;;;;;;5.47;3.90;;;;;;;;;;4902825;29;20224;-83
2023/10/30 02:53:15;;;;;;;4.30;3.63;;;;;;;;;;4902642;29;20192;-84
2023/10/30 02:56:19;;;;;;;4.77;3.80;;;;;;;;;;4892144;29;20559;-84
2023/10/30 02:59:23;;;;;;;4.97;3.37;;;;;;;;;;4891676;29;20236;-83
2023/10/30 03:02:27;;;;;;;4.50;3.33;;;;;;;;;;4902872;29;20178;-84
2023/10/30 03:05:32;;;;;;;5.93;3.90;;;;;;;;;;4902464;29;20189;-83
2023/10/30 03:08:38;;;;;;;5.63;3.90;;;;;;;;;;4891711;29;20193;-83
2023/10/30 03:11:42;;;;;;;6.17;4.27;;;;;;;;;;4880886;29;20193;-83
2023/10/30 03:14:47;;;;;;;5.53;3.80;;;;;;;;;;4902307;29;20194;-85
2023/10/30 03:17:51;;;;;;;5.73;3.20;;;;;;;;;;4901739;29;20197;-85
2023/10/30 03:20:56;;;;;;;6.43;3.60;;;;;;;;;;4890575;29;20218;-85
2023/10/30 03:24:00;;;;;;;6.73;3.73;;;;;;;;;;4879662;29;20189;-86
2023/10/30 03:27:05;;;;;;;4.50;3.47;;;;;;;;;;4890533;29;20193;-86
2023/10/30 03:30:10;;;;;;;5.40;3.90;;;;;;;;;;4890083;29;20703;-86
2023/10/30 03:33:14;;;;;;;6.00;3.40;;;;;;;;;;4900665;29;20536;-86
2023/10/30 03:36:23;;;;;;;3.93;3.17;;;;;;;;;;4890923;29;20185;-86
2023/10/30 03:39:28;;;;;;;4.33;3.47;;;;;;;;;;4901615;29;20225;-86
2023/10/30 03:42:35;;;;;;;5.30;3.70;;;;;;;;;;4901062;29;20186;-86
2023/10/30 03:45:39;;;;;;;3.53;3.13;;;;;;;;;;4901904;29;20182;-86
2023/10/30 03:48:43;;;;;;;6.43;3.50;;;;;;;;;;4900702;29;20225;-86
2023/10/30 03:51:48;;;;;;;5.53;3.43;;;;;;;;;;4890499;29;20525;-86
2023/10/30 03:54:52;;;;;;;5.20;3.50;;;;;;;;;;4900323;29;20194;-86
2023/10/30 03:57:56;;;;;;;4.47;3.53;;;;;;;;;;4900893;29;20193;-87
2023/10/30 04:01:05;;;;;;;3.90;3.50;;;;;;;;;;4889102;29;20579;-86
2023/10/30 04:04:09;;;;;;;5.17;3.10;;;;;;;;;;4900348;29;20190;-86
2023/10/30 04:07:14;;;;;;;4.23;3.37;;;;;;;;;;4900498;29;20190;-87
2023/10/30 04:10:18;;;;;;;4.93;3.73;;;;;;;;;;4889145;29;20229;-87
2023/10/30 04:13:22;;;;;;;5.57;3.87;;;;;;;;;;4901213;29;20193;-86
2023/10/30 04:16:28;;;;;;;5.00;3.77;;;;;;;;;;4900463;29;20548;-86
2023/10/30 04:19:33;;;;;;;6.27;3.70;;;;;;;;;;4899778;29;20233;-86
2023/10/30 04:22:37;;;;;;;5.43;3.63;;;;;;;;;;4900447;29;20181;-86
2023/10/30 04:25:42;;;;;;;3.97;3.40;;;;;;;;;;4899517;29;20201;-86
2023/10/30 04:28:46;;;;;;;5.00;3.57;;;;;;;;;;4900271;29;20232;-86
2023/10/30 04:31:50;;;;;;;6.07;3.87;;;;;;;;;;4900228;29;20190;-86
2023/10/30 04:34:54;;;;;;;6.27;4.20;;;;;;;;;;4889187;29;20189;-86
2023/10/30 04:37:58;;;;;;;6.57;4.10;;;;;;;;;;4889478;29;20189;-86
2023/10/30 04:41:05;;;;;;;7.47;4.30;;;;;;;;;;4878931;29;20225;-86
2023/10/30 04:44:09;;;;;;;3.97;3.47;;;;;;;;;;4889195;29;20221;-86
2023/10/30 04:47:14;;;;;;;4.17;3.73;;;;;;;;;;4904714;29;20193;-86
2023/10/30 04:50:18;;;;;;;6.20;4.40;;;;;;;;;;4904077;29;20226;-86
2023/10/30 04:53:22;;;;;;;7.37;3.93;;;;;;;;;;4904093;29;20193;-86
2023/10/30 04:56:26;;;;;;;7.93;4.40;;;;;;;;;;4903892;29;20631;-86
2023/10/30 04:59:31;;;;;;;4.43;4.03;;;;;;;;;;4904179;29;20230;-86
2023/10/30 05:02:36;;;;;;;4.30;3.50;;;;;;;;;;4903926;29;20213;-86
2023/10/30 05:05:40;;;;;;;4.53;3.50;;;;;;;;;;4903277;29;20189;-87
2023/10/30 05:08:45;;;;;;;7.07;3.87;;;;;;;;;;4892862;29;20233;-86
2023/10/30 05:11:49;;;;;;;5.17;3.53;;;;;;;;;;4892738;29;20209;-86
2023/10/30 05:14:55;;;;;;;4.27;3.73;;;;;;;;;;4903441;29;20635;-86
2023/10/30 05:17:59;;;;;;;8.47;3.83;;;;;;;;;;4903094;29;20193;-86
2023/10/30 05:21:04;;;;;;;6.33;4.13;;;;;;;;;;4903162;29;20225;-86
2023/10/30 05:24:08;;;;;;;9.03;4.47;;;;;;;;;;4892592;29;20186;-86
2023/10/30 05:27:12;;;;;;;8.50;3.90;;;;;;;;;;4892471;29;20189;-86
2023/10/30 05:30:16;;;;;;;9.63;4.40;;;;;;;;;;4902873;29;20229;-86
2023/10/30 05:33:20;;;;;;;5.90;3.67;;;;;;;;;;4902967;29;20185;-87
2023/10/30 05:36:24;;;;;;;5.93;3.87;;;;;;;;;;4903077;29;20189;-87
2023/10/30 05:39:28;;;;;;;3.90;3.27;;;;;;;;;;4891629;29;20225;-86
2023/10/30 05:42:32;;;;;;;4.30;2.70;;;;;;;;;;4903122;29;20217;-87
2023/10/30 05:45:36;;;;;;;4.33;3.40;;;;;;;;;;4892772;29;20186;-86
2023/10/30 05:48:40;;;;;;;4.57;3.33;;;;;;;;;;4902319;29;20229;-86
2023/10/30 05:51:44;;;;;;;3.73;3.00;;;;;;;;;;4891580;29;20189;-87
2023/10/30 05:54:49;;;;;;;3.83;3.03;;;;;;;;;;4902437;29;20190;-87
2023/10/30 05:57:53;;;;;;;3.20;2.90;;;;;;;;;;4902200;29;20193;-87
2023/10/30 06:00:57;;;;;;;5.77;3.57;;;;;;;;;;4891252;29;20193;-86
2023/10/30 06:04:02;;;;;;;9.00;3.60;;;;;;;;;;4901873;29;20189;-87
2023/10/30 06:07:07;;;;;;;4.17;3.40;;;;;;;;;;4902741;29;20186;-86
2023/10/30 06:10:13;;;;;;;3.33;2.90;;;;;;;;;;4901819;29;20228;-87
2023/10/30 06:13:17;;;;;;;3.87;3.20;;;;;;;;;;4901697;29;20185;-86
2023/10/30 06:16:21;;;;;;;4.93;3.17;;;;;;;;;;4891452;29;20189;-87
2023/10/30 06:19:28;;;;;;;4.77;3.50;;;;;;;;;;4901516;29;20698;-87
2023/10/30 06:22:32;;;;;;;7.77;3.87;;;;;;;;;;4880168;29;20218;-87
2023/10/30 06:25:39;;;;;;;5.00;3.80;;;;;;;;;;4890806;29;20185;-87
2023/10/30 06:28:44;;;;;;;4.90;3.70;;;;;;;;;;4902560;29;20233;-86
2023/10/30 06:31:48;;;;;;;8.60;4.53;;;;;;;;;;4902348;29;20182;-87
2023/10/30 06:34:54;;;;;;;7.30;5.20;;;;;;;;;;4890490;29;20194;-86
2023/10/30 06:37:58;;;;;;;11.20;10.00;;;;;;;;;;4901378;29;20194;-87
2023/10/30 06:41:03;;;;;;;9.50;7.70;;;;;;;;;;4901540;29;20193;-87
2023/10/30 06:44:07;;;;;;;7.30;4.60;;;;;;;;;;4900751;29;20209;-86
2023/10/30 06:47:11;;;;;;;5.03;4.23;;;;;;;;;;4890769;29;20189;-85
2023/10/30 06:50:15;;;;;;;9.20;4.10;;;;;;;;;;4889906;29;20221;-86
2023/10/30 06:53:20;;;;;;;4.67;4.03;;;;;;;;;;4901340;29;20182;-86
2023/10/30 06:56:24;;;;;;;3.87;3.10;;;;;;;;;;4900833;29;20193;-86
2023/10/30 06:59:28;;;;;;;4.73;2.90;;;;;;;;;;4890185;29;20221;-86
2023/10/30 07:02:34;;;;;;;5.03;3.40;;;;;;;;;;4889624;29;20213;-86
2023/10/30 07:05:39;;;;;;;6.43;3.20;;;;;;;;;;4879284;29;20644;-85
2023/10/30 07:08:44;;;;;;;6.17;3.20;;;;;;;;;;4878408;29;20217;-86
2023/10/30 07:11:49;;;;;;;4.77;2.90;;;;;;;;;;4890017;29;20186;-86
2023/10/30 07:14:53;;;;;;;8.73;3.10;;;;;;;;;;4889822;29;20185;-87
2023/10/30 07:17:57;;;;;;;8.53;2.80;;;;;;;;;;4901407;29;20193;-86
2023/10/30 07:21:01;;;;;;;5.43;2.50;;;;;;;;;;4900388;29;20190;-86
2023/10/30 07:24:06;;;;;;;4.33;2.40;;;;;;;;;;4900420;29;20655;-85
2023/10/30 07:27:10;;;;;;;2.53;2.30;;;;;;;;;;4890202;29;20186;-85
2023/10/30 07:30:15;;;;;;;5.13;2.30;;;;;;;;;;4901680;29;20221;-85
2023/10/30 07:33:19;;;;;;;4.87;2.23;;;;;;;;;;4900815;29;20186;-85
2023/10/30 07:36:23;;;;;;;2.77;2.30;;;;;;;;;;4902114;29;20582;-85
2023/10/30 07:39:28;;;;;;;4.63;3.03;;;;;;;;;;4879473;29;20225;-85
2023/10/30 07:42:32;;;;;;;4.80;3.17;;;;;;;;;;4900480;29;20217;-87
2023/10/30 07:45:41;;;;;;;5.53;2.97;;;;;;;;;;4900830;29;20201;-87
2023/10/30 07:48:45;;;;;;;4.37;3.70;;;;;;;;;;4900659;29;20225;-87
2023/10/30 07:51:49;;;;;;;4.53;3.90;;;;;;;;;;4901320;29;20182;-87
2023/10/30 07:54:53;;;;;;;5.67;4.30;;;;;;;;;;4890018;29;20186;-87
2023/10/30 07:57:57;;;;;;;7.33;4.33;;;;;;;;;;4890098;29;20555;-86
2023/10/30 08:01:01;;;;;;;12.67;5.83;;;;;;;;;;4900668;29;20185;-86
2023/10/30 08:04:09;;;;;;;8.77;5.10;;;;;;;;;;4889888;29;20608;-86
2023/10/30 08:07:13;;;;;;;5.97;4.40;;;;;;;;;;4901141;29;20198;-86
2023/10/30 08:10:18;;;;;;;4.47;3.80;;;;;;;;;;4900372;29;20221;-87
2023/10/30 08:13:23;;;;;;;7.50;3.80;;;;;;;;;;4901728;29;20201;-86
2023/10/30 08:16:27;;;;;;;4.30;3.47;;;;;;;;;;4890433;29;20536;-87
2023/10/30 08:19:31;;;;;;;7.27;3.10;;;;;;;;;;4900496;29;20220;-87
2023/10/30 08:22:37;;;;;;;3.60;2.93;;;;;;;;;;4900390;29;20221;-86
2023/10/30 08:25:41;;;;;;;2.40;2.07;;;;;;;;;;4900245;29;20185;-86
2023/10/30 08:28:45;;;;;;;3.50;1.80;;;;;;;;;;4899792;29;20217;-86
2023/10/30 08:31:50;;;;;;;3.83;1.67;;;;;;;;;;4900324;29;20189;-86
2023/10/30 08:34:56;;;;;;;2.20;1.57;;;;;;;;;;4899794;29;20197;-87
2023/10/30 08:38:00;;;;;;;2.77;1.60;;;;;;;;;;4888257;29;20193;-87
2023/10/30 08:41:04;;;;;;;3.23;1.50;;;;;;;;;;4888571;29;20181;-86
2023/10/30 08:44:08;;;;;;;2.90;1.40;;;;;;;;;;4877703;29;20209;-87
2023/10/30 08:47:14;;;;;;;5.37;1.77;;;;;;;;;;4898766;29;20301;-87
2023/10/30 08:50:18;;;;;;;2.13;1.40;;;;;;;;;;4898427;29;20224;-86
2023/10/30 08:53:22;;;;;;;2.47;1.60;;;;;;;;;;4877284;29;20533;-86
2023/10/30 08:56:26;;;;;;;2.07;1.40;;;;;;;;;;4888186;29;20190;-87
2023/10/30 08:59:30;;;;;;;1.80;1.37;;;;;;;;;;4888482;29;20229;-86
2023/10/30 09:02:34;;;;;;;2.30;1.30;;;;;;;;;;4877879;29;20221;-87
2023/10/30 09:05:39;;;;;;;5.80;1.47;;;;;;;;;;4898225;29;20537;-86
2023/10/30 09:08:43;;;;;;;2.73;1.10;;;;;;;;;;4887533;29;20221;-87
2023/10/30 09:11:47;;;;;;;2.30;1.20;;;;;;;;;;4888436;29;20185;-86
2023/10/30 09:14:52;;;;;;;2.77;1.30;;;;;;;;;;4899125;29;20190;-84
2023/10/30 09:17:56;;;;;;;1.37;1.10;;;;;;;;;;4890640;29;20186;-84
2023/10/30 09:21:01;;;;;;;1.17;0.90;;;;;;;;;;4902401;29;20647;-84
2023/10/30 09:24:05;;;;;;;1.57;1.00;;;;;;;;;;4889905;29;20213;-84
2023/10/30 09:27:09;;;;;;;1.00;0.90;;;;;;;;;;4901636;29;20198;-84
2023/10/30 09:30:15;;;;;;;2.13;1.30;;;;;;;;;;4901946;29;20236;-84
2023/10/30 09:33:20;;;;;;;2.77;1.17;;;;;;;;;;4905493;29;20189;-84
2023/10/30 09:36:24;;;;;;;1.57;1.10;;;;;;;;;;4905801;29;20189;-83
2023/10/30 09:39:29;;;;;;;2.67;1.10;;;;;;;;;;4905068;29;20221;-84
2023/10/30 09:42:36;;;;;;;2.20;1.37;;;;;;;;;;4893957;29;20560;-84
2023/10/30 09:45:41;;;;;;;2.73;1.10;;;;;;;;;;4883059;29;20189;-84
2023/10/30 09:48:48;;;;;;;1.70;0.80;;;;;;;;;;4904939;29;20237;-84
2023/10/30 09:51:54;;;;;;;1.17;1.00;;;;;;;;;;4906190;29;20655;-84
2023/10/30 09:54:58;;;;;;;1.37;1.00;;;;;;;;;;4905537;29;20185;-84
2023/10/30 09:58:03;;;;;;;3.20;0.80;;;;;;;;;;4889554;29;20182;-84
2023/10/30 10:01:07;;;;;;;1.57;1.00;;;;;;;;;;4899269;29;20198;-84
2023/10/30 10:04:12;;;;;;;2.20;1.07;;;;;;;;;;4911010;29;20218;-84
2023/10/30 10:07:18;;;;;;;1.67;1.00;;;;;;;;;;4908163;29;20181;-84
2023/10/30 10:10:22;;;;;;;1.40;1.03;;;;;;;;;;4907551;29;20225;-84
2023/10/30 10:13:31;;;;;;;1.60;1.07;;;;;;;;;;4907074;29;20190;-84
2023/10/30 10:16:35;;;;;;;3.87;1.40;;;;;;;;;;4893582;29;20193;-84
2023/10/30 10:19:45;;;;;;;2.97;1.20;;;;;;;;;;4892934;29;20225;-84
2023/10/30 10:22:49;;;;;;;3.60;1.50;;;;;;;;;;4903324;29;20691;-84
2023/10/30 10:25:55;;;;;;;2.93;1.30;;;;;;;;;;4905256;29;20182;-84
2023/10/30 10:28:59;;;;;;;1.60;1.30;;;;;;;;;;4904979;29;20588;-84
2023/10/30 10:32:04;;;;;;;3.47;1.20;;;;;;;;;;4904720;29;20662;-83
2023/10/30 10:35:11;;;;;;;1.40;1.03;;;;;;;;;;4894674;29;20185;-83
2023/10/30 10:38:16;;;;;;;2.10;1.33;;;;;;;;;;4905037;29;20194;-84
2023/10/30 10:41:20;;;;;;;2.17;1.33;;;;;;;;;;4904829;29;20655;-84
2023/10/30 10:44:25;;;;;;;2.33;1.50;;;;;;;;;;4893677;29;20229;-84
2023/10/30 10:47:29;;;;;;;2.10;1.40;;;;;;;;;;4893833;29;20182;-83
2023/10/30 10:50:34;;;;;;;4.53;1.47;;;;;;;;;;4904877;29;20232;-84
2023/10/30 10:53:38;;;;;;;1.83;1.50;;;;;;;;;;4904565;29;20186;-83
2023/10/30 10:56:46;;;;;;;1.53;1.20;;;;;;;;;;4904999;29;20194;-83
2023/10/30 11:00:00;;;;;;;3.83;1.40;;;;;;;;;;4893502;29;20217;-84
2023/10/30 11:03:06;;;;;;;2.90;1.37;;;;;;;;;;4904978;29;20222;-83
2023/10/30 11:06:11;;;;;;;1.83;1.40;;;;;;;;;;4905123;29;20193;-84
2023/10/30 11:09:21;;;;;;;4.13;1.83;;;;;;;;;;4904370;29;20225;-83
2023/10/30 11:12:37;;;;;;;2.43;1.63;;;;;;;;;;4904296;29;20632;-84
2023/10/30 11:15:59;;;;;;;2.33;1.50;;;;;;;;;;4892651;29;20194;-84
2023/10/30 11:19:06;;;;;;;2.77;1.57;;;;;;;;;;4903628;29;20244;-84
2023/10/30 11:22:10;;;;;;;13.43;3.27;;;;;;;;;;4903485;29;20181;-84
2023/10/30 11:25:36;;;;;;;3.00;1.97;;;;;;;;;;4904343;29;20624;-84
2023/10/30 11:28:42;;;;;;;2.33;1.40;;;;;;;;;;4892645;29;20233;-84
2023/10/30 11:32:04;;;;;;;3.80;1.70;;;;;;;;;;4903067;29;20564;-84
2023/10/30 11:35:08;;;;;;;1.70;1.60;;;;;;;;;;4902458;29;20190;-84
2023/10/30 11:38:16;;;;;;;2.30;1.80;;;;;;;;;;4891628;29;20194;-84
2023/10/30 11:41:24;;;;;;;4.70;2.07;;;;;;;;;;4903663;29;20186;-84
2023/10/30 11:44:30;;;;;;;3.03;2.00;;;;;;;;;;4903720;29;20229;-83
2023/10/30 11:47:34;;;;;;;3.03;2.30;;;;;;;;;;4903270;29;20190;-83
2023/10/30 11:50:43;;;;;;;3.10;2.50;;;;;;;;;;4902073;29;20240;-85
2023/10/30 11:53:47;;;;;;;4.80;2.83;;;;;;;;;;4903564;29;20219;-83
2023/10/30 11:56:52;;;;;;;3.27;2.50;;;;;;;;;;4903182;29;20182;-84
2023/10/30 11:59:56;;;;;;;3.53;2.70;;;;;;;;;;4901831;29;20221;-83
2023/10/30 12:03:00;;;;;;;7.30;3.00;;;;;;;;;;4897099;29;20217;-84
2023/10/30 12:06:04;;;;;;;5.03;2.40;;;;;;;;;;4906603;29;20509;-84
2023/10/30 12:09:08;;;;;;;7.93;2.50;;;;;;;;;;4905384;29;20572;-84
2023/10/30 12:12:13;;;;;;;4.73;2.90;;;;;;;;;;4903370;29;20612;-84
2023/10/30 12:15:17;;;;;;;5.87;3.13;;;;;;;;;;4891510;29;20185;-84
2023/10/30 12:18:22;;;;;;;6.70;3.47;;;;;;;;;;4890311;29;20560;-84
2023/10/30 12:21:28;;;;;;;8.30;3.20;;;;;;;;;;4900430;29;20190;-84
2023/10/30 12:24:33;;;;;;;6.80;3.10;;;;;;;;;;4897187;29;20703;-84
2023/10/30 12:27:38;;;;;;;4.57;2.70;;;;;;;;;;4909146;29;20185;-84
2023/10/30 12:30:43;;;;;;;4.53;2.47;;;;;;;;;;4909687;29;20229;-84
2023/10/30 12:33:47;;;;;;;4.47;3.20;;;;;;;;;;4908694;29;20186;-84
2023/10/30 12:36:52;;;;;;;3.63;2.83;;;;;;;;;;4908312;29;20189;-84
2023/10/30 12:40:00;;;;;;;4.93;3.30;;;;;;;;;;4910051;29;20229;-83
2023/10/30 12:43:05;;;;;;;5.83;3.30;;;;;;;;;;4899341;29;20229;-84
2023/10/30 12:46:09;;;;;;;3.77;3.37;;;;;;;;;;4885517;29;20193;-85
2023/10/30 12:49:13;;;;;;;6.87;3.33;;;;;;;;;;4902472;29;20225;-85
2023/10/30 12:52:17;;;;;;;4.83;3.27;;;;;;;;;;4901841;29;20189;-85
2023/10/30 12:55:21;;;;;;;8.60;3.30;;;;;;;;;;4902497;29;20185;-85
2023/10/30 12:58:27;;;;;;;6.23;3.40;;;;;;;;;;4900897;29;20193;-87
2023/10/30 13:01:33;;;;;;;5.73;3.07;;;;;;;;;;4900589;29;20181;-87
2023/10/30 13:04:37;;;;;;;6.07;3.37;;;;;;;;;;4900742;29;20217;-85
2023/10/30 13:07:41;;;;;;;4.17;2.40;;;;;;;;;;4894613;29;20186;-84
2023/10/30 13:10:46;;;;;;;5.53;3.07;;;;;;;;;;4906934;29;20221;-85
2023/10/30 13:13:51;;;;;;;4.37;3.00;;;;;;;;;;4905980;29;20186;-85
2023/10/30 13:16:55;;;;;;;4.97;3.00;;;;;;;;;;4907983;29;20189;-84
2023/10/30 13:19:59;;;;;;;6.20;3.50;;;;;;;;;;4908529;29;20225;-84
2023/10/30 13:23:03;;;;;;;6.80;3.10;;;;;;;;;;4894901;29;20194;-85
2023/10/30 13:26:07;;;;;;;8.67;3.50;;;;;;;;;;4906086;29;20185;-85
2023/10/30 13:29:11;;;;;;;3.80;3.00;;;;;;;;;;4905104;29;20687;-85
2023/10/30 13:32:16;;;;;;;4.53;3.53;;;;;;;;;;4904791;29;20193;-85
2023/10/30 13:35:20;;;;;;;5.33;3.80;;;;;;;;;;4904775;29;20189;-85
2023/10/30 13:38:24;;;;;;;4.70;3.60;;;;;;;;;;4903569;29;20532;-86
2023/10/30 13:41:28;;;;;;;5.60;3.67;;;;;;;;;;4904370;29;20194;-87
2023/10/30 13:44:33;;;;;;;10.17;3.30;;;;;;;;;;4903981;29;20237;-87
2023/10/30 13:47:37;;;;;;;4.73;3.67;;;;;;;;;;4903725;29;20536;-86
2023/10/30 13:50:41;;;;;;;6.97;3.30;;;;;;;;;;4894854;29;20575;-87
2023/10/30 13:53:45;;;;;;;6.77;3.67;;;;;;;;;;4882679;29;20193;-87
2023/10/30 13:56:49;;;;;;;4.27;3.87;;;;;;;;;;4892870;29;20190;-87
2023/10/30 13:59:54;;;;;;;4.50;3.93;;;;;;;;;;4904120;29;20225;-85
2023/10/30 14:02:58;;;;;;;5.33;4.00;;;;;;;;;;4897358;29;20197;-84
2023/10/30 14:06:03;;;;;;;4.17;3.77;;;;;;;;;;4907609;29;20178;-83
2023/10/30 14:09:07;;;;;;;10.53;4.70;;;;;;;;;;4897594;29;20233;-84
2023/10/30 14:12:11;;;;;;;9.47;4.80;;;;;;;;;;4897798;29;20213;-83
2023/10/30 14:15:16;;;;;;;6.17;3.87;;;;;;;;;;4907419;29;20194;-84
2023/10/30 14:18:20;;;;;;;6.70;3.83;;;;;;;;;;4907120;29;20185;-84
2023/10/30 14:21:26;;;;;;;6.47;4.50;;;;;;;;;;4906487;29;20189;-83
2023/10/30 14:24:30;;;;;;;4.90;4.13;;;;;;;;;;4907298;29;20217;-84
2023/10/30 14:27:35;;;;;;;6.63;4.40;;;;;;;;;;4913225;29;20185;-86
2023/10/30 14:30:39;;;;;;;6.87;4.87;;;;;;;;;;4917442;29;20217;-86
2023/10/30 14:33:43;;;;;;;6.03;4.73;;;;;;;;;;4915473;29;20521;-85
2023/10/30 14:36:47;;;;;;;9.93;4.80;;;;;;;;;;4893824;29;20193;-87
2023/10/30 14:39:51;;;;;;;5.47;4.13;;;;;;;;;;4893567;29;20707;-88
2023/10/30 14:42:56;;;;;;;6.30;4.17;;;;;;;;;;4905283;29;20687;-83
2023/10/30 14:46:02;;;;;;;6.23;4.57;;;;;;;;;;4896661;29;20178;-83
2023/10/30 14:49:06;;;;;;;6.07;4.87;;;;;;;;;;4896436;29;20225;-85
2023/10/30 14:52:10;;;;;;;4.50;4.00;;;;;;;;;;4905886;29;20181;-85
2023/10/30 14:55:14;;;;;;;9.13;5.00;;;;;;;;;;4892971;29;20190;-87
2023/10/30 14:58:18;;;;;;;7.27;5.57;;;;;;;;;;4906409;29;20189;-86
2023/10/30 15:01:22;;;;;;;8.43;4.87;;;;;;;;;;4905726;29;20186;-86
2023/10/30 15:04:27;;;;;;;7.37;4.30;;;;;;;;;;4893890;29;20230;-86
2023/10/30 15:07:31;;;;;;;10.50;5.23;;;;;;;;;;4903506;29;20182;-86
2023/10/30 15:10:36;;;;;;;6.50;5.13;;;;;;;;;;4905765;29;20225;-85
2023/10/30 15:13:41;;;;;;;9.10;5.50;;;;;;;;;;4903481;29;20540;-86
2023/10/30 15:16:45;;;;;;;9.73;5.57;;;;;;;;;;4893700;29;20197;-84
2023/10/30 15:19:49;;;;;;;7.30;4.70;;;;;;;;;;4871337;29;20221;-84
2023/10/30 15:22:54;;;;;;;7.73;5.20;;;;;;;;;;4895055;29;20194;-84
2023/10/30 15:25:58;;;;;;;6.50;5.50;;;;;;;;;;4897054;29;20178;-84
2023/10/30 15:29:03;;;;;;;6.03;4.43;;;;;;;;;;4884534;29;20225;-84
2023/10/30 15:32:07;;;;;;;8.93;4.93;;;;;;;;;;4896269;29;20194;-83
2023/10/30 15:35:12;;;;;;;8.03;6.03;;;;;;;;;;4898609;29;20186;-84
2023/10/30 15:38:16;;;;;;;8.57;6.43;;;;;;;;;;4896458;29;20197;-83
2023/10/30 15:41:20;;;;;;;8.37;7.27;;;;;;;;;;4886724;29;20193;-83
2023/10/30 15:44:24;;;;;;;8.87;6.53;;;;;;;;;;4897271;29;20233;-83
2023/10/30 15:47:33;;;;;;;5.67;4.37;;;;;;;;;;4898032;29;20644;-83
2023/10/30 15:50:40;;;;;;;7.07;4.57;;;;;;;;;;4909456;29;20221;-84
2023/10/30 15:53:44;;;;;;;5.30;4.10;;;;;;;;;;4898590;29;20190;-86
2023/10/30 15:56:48;;;;;;;5.53;4.23;;;;;;;;;;4902788;29;20651;-86
2023/10/30 15:59:52;;;;;;;5.90;4.33;;;;;;;;;;4897405;29;20229;-87
2023/10/30 16:02:59;;;;;;;5.97;3.93;;;;;;;;;;4889679;29;20190;-87
2023/10/30 16:06:04;;;;;;;5.83;3.87;;;;;;;;;;4889710;29;20221;-87
2023/10/30 16:09:08;;;;;;;9.03;3.90;;;;;;;;;;4907645;29;20225;-84
2023/10/30 16:12:13;;;;;;;7.43;3.80;;;;;;;;;;4894618;29;20549;-87
2023/10/30 16:15:17;;;;;;;8.70;3.83;;;;;;;;;;4900426;29;20639;-87
2023/10/30 16:18:21;;;;;;;5.13;3.83;;;;;;;;;;4889048;29;20189;-86
2023/10/30 16:21:25;;;;;;;5.27;3.73;;;;;;;;;;4900219;29;20537;-87
2023/10/30 16:24:29;;;;;;;6.07;3.57;;;;;;;;;;4888721;29;20213;-87
2023/10/30 16:27:33;;;;;;;4.67;3.63;;;;;;;;;;4876689;29;20189;-87
2023/10/30 16:30:37;;;;;;;5.27;3.27;;;;;;;;;;4898096;29;20228;-87
2023/10/30 16:33:43;;;;;;;6.20;3.20;;;;;;;;;;4898684;29;20189;-87
2023/10/30 16:36:47;;;;;;;6.00;3.70;;;;;;;;;;4898382;29;20194;-87
2023/10/30 16:39:51;;;;;;;4.97;3.57;;;;;;;;;;4887002;29;20225;-87
2023/10/30 16:42:55;;;;;;;5.53;3.67;;;;;;;;;;4897546;29;20213;-87
2023/10/30 16:45:59;;;;;;;4.23;3.30;;;;;;;;;;4898171;29;20556;-88
2023/10/30 16:49:03;;;;;;;5.17;3.80;;;;;;;;;;4887100;29;20225;-87
2023/10/30 16:52:08;;;;;;;6.10;3.43;;;;;;;;;;4887342;29;20194;-87
2023/10/30 16:55:12;;;;;;;4.77;3.37;;;;;;;;;;4897966;29;20186;-87
2023/10/30 16:58:17;;;;;;;4.87;3.30;;;;;;;;;;4898463;29;20190;-87
2023/10/30 17:01:21;;;;;;;6.83;3.37;;;;;;;;;;4898033;29;20186;-87
2023/10/30 17:04:25;;;;;;;3.97;3.50;;;;;;;;;;4887539;29;20221;-85
2023/10/30 17:07:29;;;;;;;5.50;3.50;;;;;;;;;;4877105;29;20524;-85
2023/10/30 17:10:34;;;;;;;5.97;3.73;;;;;;;;;;4899176;29;20229;-85
2023/10/30 17:13:38;;;;;;;7.93;4.50;;;;;;;;;;4898534;29;20551;-85
2023/10/30 17:16:44;;;;;;;4.60;3.50;;;;;;;;;;4898542;29;20186;-85
2023/10/30 17:19:49;;;;;;;4.60;3.53;;;;;;;;;;4876949;29;20225;-85
2023/10/30 17:22:52;;;;;;;4.63;3.43;;;;;;;;;;4899881;29;20190;-85
2023/10/30 17:25:57;;;;;;;8.03;3.93;;;;;;;;;;4900551;29;20229;-85
2023/10/30 17:29:01;;;;;;;6.20;3.77;;;;;;;;;;4901185;29;20234;-85
2023/10/30 17:32:06;;;;;;;6.10;3.70;;;;;;;;;;4891415;29;20190;-85
2023/10/30 17:35:10;;;;;;;6.00;3.13;;;;;;;;;;4901435;29;20632;-85
2023/10/30 17:38:14;;;;;;;4.20;3.43;;;;;;;;;;4901049;29;20212;-85
2023/10/30 17:41:19;;;;;;;6.07;3.60;;;;;;;;;;4902997;29;20189;-85
2023/10/30 17:44:23;;;;;;;5.00;3.53;;;;;;;;;;4890566;29;20213;-85
2023/10/30 17:47:28;;;;;;;4.50;3.60;;;;;;;;;;4901079;29;20189;-85
2023/10/30 17:50:33;;;;;;;7.33;3.43;;;;;;;;;;4901725;29;20229;-85
2023/10/30 17:53:37;;;;;;;6.10;3.40;;;;;;;;;;4883000;29;20189;-85
2023/10/30 17:56:41;;;;;;;6.77;3.70;;;;;;;;;;4906165;29;20189;-85
2023/10/30 17:59:45;;;;;;;4.97;3.60;;;;;;;;;;4904360;29;20233;-85
2023/10/30 18:02:50;;;;;;;5.23;3.40;;;;;;;;;;4904697;29;20635;-85
2023/10/30 18:05:54;;;;;;;6.63;3.30;;;;;;;;;;4905125;29;20683;-85
2023/10/30 18:08:58;;;;;;;4.17;3.27;;;;;;;;;;4905256;29;20233;-85
2023/10/30 18:12:02;;;;;;;3.73;3.27;;;;;;;;;;4904917;29;20193;-87
2023/10/30 18:15:07;;;;;;;5.90;3.50;;;;;;;;;;4890981;29;20189;-87
2023/10/30 18:18:11;;;;;;;8.27;3.67;;;;;;;;;;4901362;29;20524;-87
2023/10/30 18:21:15;;;;;;;5.30;3.03;;;;;;;;;;4890694;29;20631;-87
2023/10/30 18:24:22;;;;;;;4.60;3.30;;;;;;;;;;4890439;29;20647;-87
2023/10/30 18:27:28;;;;;;;6.50;3.57;;;;;;;;;;4901846;29;20199;-87